Time;durP1;ratioP1;P1;durP2;ratioP2;P2;SDS_P1;SDS_P2;PMS_P1;PMS_P2;Temp;Humidity;BMP_temperature;BMP_pressure;BME280_temperature;BME280_humidity;BME280_pressure;Samples;Min_cycle;Max_cycle;Signal;HPM_P1;HPM_P2
2022/04/23 00:00:52;;;;;;;10.30;8.03;;;;;;;7.28;100.00;95303.97;5035802;28;20471;-74
2022/04/23 00:03:19;;;;;;;9.97;9.07;;;;;;;7.60;100.00;95368.03;5036325;28;20968;-74
2022/04/23 00:05:46;;;;;;;9.37;8.47;;;;;;;7.60;100.00;95347.00;5034688;28;20447;-75
2022/04/23 00:08:12;;;;;;;12.50;9.93;;;;;;;7.58;100.00;95351.81;5018701;28;20518;-75
2022/04/23 00:10:39;;;;;;;9.27;8.40;;;;;;;7.54;100.00;95353.59;5052490;28;20446;-75
2022/04/23 00:13:06;;;;;;;10.53;9.43;;;;;;;7.52;100.00;95339.22;5035489;28;20486;-74
2022/04/23 00:15:37;;;;;;;9.90;8.97;;;;;;;7.28;100.00;95311.84;5034556;28;20561;-74
2022/04/23 00:18:08;;;;;;;10.23;9.23;;;;;;;7.39;100.00;95343.72;5053187;28;20424;-74
2022/04/23 00:20:36;;;;;;;11.10;10.03;;;;;;;7.31;100.00;95329.59;5051962;28;20474;-74
2022/04/23 00:23:05;;;;;;;15.73;10.90;;;;;;;7.47;100.00;95344.69;5034429;28;20438;-75
2022/04/23 00:25:34;;;;;;;11.93;10.73;;;;;;;7.46;100.00;95351.81;5052822;28;20469;-75
2022/04/23 00:28:03;;;;;;;12.77;11.27;;;;;;;7.42;100.00;95350.97;5034888;28;20424;-75
2022/04/23 00:30:29;;;;;;;12.00;10.80;;;;;;;7.27;100.00;95331.34;5035142;28;20462;-75
2022/04/23 00:33:00;;;;;;;12.03;10.17;;;;;;;7.21;100.00;95324.81;5049770;28;20505;-75
2022/04/23 00:35:29;;;;;;;14.07;12.67;;;;;;;7.31;100.00;95323.56;5044338;28;20467;-76
2022/04/23 00:38:00;;;;;;;12.50;10.60;;;;;;;7.30;100.00;95343.06;5044366;28;20449;-75
2022/04/23 00:40:30;;;;;;;13.00;11.63;;;;;;;7.34;100.00;95359.72;5005564;28;20493;-75
2022/04/23 00:42:58;;;;;;;11.00;9.97;;;;;;;7.38;100.00;95348.22;5044485;28;20456;-75
2022/04/23 00:45:26;;;;;;;12.80;10.57;;;;;;;7.16;100.00;95324.22;5036289;28;20530;-75
2022/04/23 00:47:53;;;;;;;12.00;10.63;;;;;;;7.34;100.00;95359.72;5035201;28;20492;-75
2022/04/23 00:50:21;;;;;;;14.33;11.70;;;;;;;7.13;100.00;95327.53;5054553;28;20918;-75
2022/04/23 00:53:02;;;;;;;11.80;10.67;;;;;;;7.00;100.00;95313.59;5038757;28;20427;-74
2022/04/23 00:55:31;;;;;;;12.10;10.90;;;;;;;7.25;100.00;95357.22;5045152;28;20466;-74
2022/04/23 00:57:59;;;;;;;14.67;12.53;;;;;;;7.16;100.00;95343.41;5046468;28;20462;-73
2022/04/23 01:00:26;;;;;;;15.40;12.03;;;;;;;7.19;100.00;95347.22;5039437;28;20501;-74
2022/04/23 01:02:55;;;;;;;15.93;12.90;;;;;;;7.06;100.00;95328.81;5036336;28;20471;-75
2022/04/23 01:05:26;;;;;;;14.37;12.03;;;;;;;7.01;100.00;95329.03;5051861;28;20482;-73
2022/04/23 01:07:53;;;;;;;12.63;11.33;;;;;;;6.81;100.00;95303.63;5034026;28;20475;-73
2022/04/23 01:10:20;;;;;;;12.07;10.73;;;;;;;7.01;100.00;95341.41;5033982;28;20454;-74
2022/04/23 01:12:47;;;;;;;15.00;12.53;;;;;;;6.85;100.00;95316.88;5036486;28;20435;-74
2022/04/23 01:15:14;;;;;;;14.77;13.43;;;;;;;6.99;100.00;95323.34;5041450;28;20549;-74
2022/04/23 01:17:42;;;;;;;11.37;10.33;;;;;;;7.06;100.00;95349.84;5019918;28;20438;-74
2022/04/23 01:20:10;;;;;;;11.57;10.37;;;;;;;7.16;100.00;95350.50;5040736;28;20559;-74
2022/04/23 01:22:38;;;;;;;12.50;10.90;;;;;;;6.99;100.00;95312.06;5033105;28;20446;-74
2022/04/23 01:25:07;;;;;;;14.70;11.83;;;;;;;7.08;100.00;95344.28;5033358;28;21085;-74
2022/04/23 01:27:34;;;;;;;12.77;11.50;;;;;;;6.82;100.00;95315.69;5033429;28;20588;-74
2022/04/23 01:30:01;;;;;;;14.37;12.87;;;;;;;6.79;100.00;95319.69;5033526;28;21039;-74
2022/04/23 01:32:28;;;;;;;13.87;11.60;;;;;;;6.63;100.00;95300.41;5033243;28;20446;-74
2022/04/23 01:34:55;;;;;;;12.40;11.10;;;;;;;6.88;100.00;95353.00;5036421;28;20876;-74
2022/04/23 01:37:22;;;;;;;14.47;12.30;;;;;;;6.56;100.00;95318.59;5033378;28;20431;-74
2022/04/23 01:39:48;;;;;;;13.83;12.43;;;;;;;6.78;100.00;95348.94;5033331;28;20478;-74
2022/04/23 01:42:17;;;;;;;14.23;11.97;;;;;;;6.74;100.00;95346.19;5051535;28;20513;-74
2022/04/23 01:44:45;;;;;;;14.43;11.67;;;;;;;6.73;100.00;95354.41;5033405;28;20482;-74
2022/04/23 01:47:12;;;;;;;13.87;12.20;;;;;;;6.71;100.00;95354.72;5048067;28;20434;-74
2022/04/23 01:49:39;;;;;;;17.83;12.80;;;;;;;6.68;100.00;95354.63;5036935;28;20459;-74
2022/04/23 01:52:06;;;;;;;14.00;12.50;;;;;;;6.64;100.00;95351.09;5055611;28;20438;-74
2022/04/23 01:54:34;;;;;;;15.90;13.97;;;;;;;6.32;100.00;95300.13;5037070;28;20505;-74
2022/04/23 01:57:02;;;;;;;13.83;12.50;;;;;;;6.78;100.00;95360.19;5044412;28;20435;-74
2022/04/23 01:59:30;;;;;;;20.87;13.27;;;;;;;6.77;100.00;95348.16;5045563;28;20834;-74
2022/04/23 02:01:57;;;;;;;13.73;12.33;;;;;;;6.82;100.00;95353.22;5038302;28;20443;-74
2022/04/23 02:04:24;;;;;;;15.40;13.13;;;;;;;6.77;100.00;95363.16;5039875;28;20425;-74
2022/04/23 02:06:51;;;;;;;15.27;13.37;;;;;;;6.66;100.00;95338.38;5041316;28;20435;-74
2022/04/23 02:09:18;;;;;;;13.67;12.07;;;;;;;6.81;100.00;95359.56;5037578;28;20994;-75
2022/04/23 02:11:45;;;;;;;15.20;13.60;;;;;;;6.71;100.00;95340.81;5036428;28;20493;-74
2022/04/23 02:14:11;;;;;;;17.73;15.47;;;;;;;6.92;100.00;95359.13;5054460;28;20473;-75
2022/04/23 02:16:39;;;;;;;18.27;16.30;;;;;;;6.85;100.00;95341.28;5037051;28;20439;-74
2022/04/23 02:19:06;;;;;;;22.60;18.20;;;;;;;6.84;100.00;95337.13;5035844;28;20551;-74
2022/04/23 02:21:32;;;;;;;19.67;17.77;;;;;;;7.08;100.00;95366.06;5036195;28;20438;-74
2022/04/23 02:24:01;;;;;;;22.03;19.77;;;;;;;7.08;100.00;95357.44;5036654;28;20526;-74
2022/04/23 02:26:28;;;;;;;22.40;17.87;;;;;;;7.02;100.00;95356.09;5037152;28;20484;-74
2022/04/23 02:28:54;;;;;;;21.00;18.37;;;;;;;7.17;100.00;95350.19;5026348;28;20569;-74
2022/04/23 02:31:21;;;;;;;21.50;19.07;;;;;;;7.14;100.00;95360.59;5048546;28;20467;-74
2022/04/23 02:33:48;;;;;;;22.97;20.57;;;;;;;7.06;100.00;95338.56;5036327;28;21073;-74
2022/04/23 02:36:17;;;;;;;23.63;21.10;;;;;;;6.77;100.00;95314.00;5052456;28;21087;-74
2022/04/23 02:38:44;;;;;;;21.57;19.27;;;;;;;6.86;100.00;95327.06;5037140;28;20547;-74
2022/04/23 02:41:11;;;;;;;23.43;20.23;;;;;;;6.91;100.00;95339.97;5019387;28;20497;-74
2022/04/23 02:43:41;;;;;;;25.30;21.23;;;;;;;7.09;100.00;95348.44;5052443;28;20465;-74
2022/04/23 02:46:08;;;;;;;24.07;20.93;;;;;;;7.02;100.00;95338.47;5052283;28;20538;-74
2022/04/23 02:48:38;;;;;;;27.00;22.40;;;;;;;7.06;100.00;95351.72;5035977;28;21025;-74
2022/04/23 02:51:04;;;;;;;29.83;24.00;;;;;;;6.89;100.00;95323.78;5037982;28;20849;-74
2022/04/23 02:53:31;;;;;;;25.27;22.57;;;;;;;7.09;100.00;95348.44;5041536;28;20461;-76
2022/04/23 02:56:02;;;;;;;27.97;23.10;;;;;;;7.02;100.00;95337.69;5041048;28;20455;-73
2022/04/23 02:58:29;;;;;;;23.73;21.23;;;;;;;6.82;100.00;95305.16;5056889;28;20439;-73
2022/04/23 03:00:55;;;;;;;25.23;21.23;;;;;;;7.03;100.00;95326.84;5039161;28;20486;-73
2022/04/23 03:03:22;;;;;;;30.07;24.30;;;;;;;6.94;100.00;95313.03;5039375;28;20509;-73
2022/04/23 03:05:53;;;;;;;25.27;21.87;;;;;;;7.07;100.00;95326.97;5055334;28;20435;-73
2022/04/23 03:08:23;;;;;;;26.57;21.80;;;;;;;7.08;100.00;95324.03;5053587;28;20507;-73
2022/04/23 03:10:50;;;;;;;28.30;22.70;;;;;;;7.20;100.00;95346.91;5035188;28;20463;-73
2022/04/23 03:13:17;;;;;;;28.37;25.10;;;;;;;6.93;100.00;95311.50;5035269;28;20943;-73
2022/04/23 03:15:45;;;;;;;28.70;23.10;;;;;;;7.06;100.00;95331.44;5053174;28;20463;-74
2022/04/23 03:18:13;;;;;;;28.27;22.97;;;;;;;6.93;100.00;95316.00;5035269;28;20447;-73
2022/04/23 03:20:41;;;;;;;27.80;24.80;;;;;;;7.17;100.00;95338.91;5036320;28;20552;-74
2022/04/23 03:23:08;;;;;;;32.13;24.87;;;;;;;7.00;100.00;95321.50;5036496;28;20531;-75
2022/04/23 03:25:34;;;;;;;31.80;25.77;;;;;;;6.66;100.00;95263.00;5038777;28;20446;-75
2022/04/23 03:28:01;;;;;;;29.80;24.47;;;;;;;6.98;100.00;95313.19;5054227;28;20457;-75
2022/04/23 03:30:29;;;;;;;29.67;25.77;;;;;;;7.21;100.00;95345.81;5040508;28;20475;-75
2022/04/23 03:32:56;;;;;;;31.27;24.53;;;;;;;7.28;100.00;95347.91;5049447;28;20431;-74
2022/04/23 03:35:23;;;;;;;31.30;26.60;;;;;;;7.23;100.00;95340.25;5035174;28;20994;-75
2022/04/23 03:37:50;;;;;;;28.80;24.90;;;;;;;7.26;100.00;95344.84;5018513;28;20553;-75
2022/04/23 03:40:23;;;;;;;27.20;24.27;;;;;;;7.21;100.00;95327.44;5032209;28;21001;-75
2022/04/23 03:42:50;;;;;;;30.20;26.23;;;;;;;7.28;100.00;95351.28;5052693;28;20439;-74
2022/04/23 03:45:18;;;;;;;29.83;24.67;;;;;;;7.10;100.00;95306.06;5052648;28;20876;-75
2022/04/23 03:47:47;;;;;;;34.03;26.77;;;;;;;7.23;100.00;95330.50;5034828;28;20954;-75
2022/04/23 03:50:15;;;;;;;26.00;23.20;;;;;;;7.32;100.00;95338.25;5034807;28;20596;-75
2022/04/23 03:52:43;;;;;;;29.93;25.50;;;;;;;7.29;100.00;95344.94;5034492;28;20851;-75
2022/04/23 03:55:11;;;;;;;34.87;27.50;;;;;;;7.29;100.00;95344.16;5034252;28;20550;-75
2022/04/23 03:57:44;;;;;;;31.43;26.47;;;;;;;7.27;100.00;95341.88;5034639;28;20471;-75
2022/04/23 04:00:13;;;;;;;33.50;27.43;;;;;;;7.25;100.00;95349.31;5034273;28;20459;-75
2022/04/23 04:02:39;;;;;;;35.43;28.37;;;;;;;7.26;100.00;95348.22;5052229;28;20440;-75
2022/04/23 04:05:07;;;;;;;31.33;26.27;;;;;;;7.34;100.00;95343.94;5034333;28;20436;-75
2022/04/23 04:07:34;;;;;;;30.60;24.27;;;;;;;7.32;100.00;95335.63;5052147;28;20427;-75
2022/04/23 04:10:01;;;;;;;29.50;24.17;;;;;;;7.30;100.00;95341.22;5033491;28;20641;-75
2022/04/23 04:12:28;;;;;;;35.70;24.97;;;;;;;7.18;100.00;95316.78;5034417;28;20514;-75
2022/04/23 04:14:54;;;;;;;33.63;26.77;;;;;;;7.07;100.00;95301.44;5034074;28;20526;-75
2022/04/23 04:17:21;;;;;;;32.10;26.40;;;;;;;7.38;100.00;95344.84;5033933;28;20438;-75
2022/04/23 04:19:48;;;;;;;34.43;26.83;;;;;;;7.41;100.00;95349.44;5033808;28;20949;-75
2022/04/23 04:22:15;;;;;;;36.40;26.80;;;;;;;7.24;100.00;95336.50;5038170;28;20530;-74
2022/04/23 04:24:41;;;;;;;34.50;26.67;;;;;;;7.17;100.00;95333.66;5033970;28;20862;-74
2022/04/23 04:27:08;;;;;;;29.83;24.03;;;;;;;7.17;100.00;95325.75;5033776;28;20541;-74
2022/04/23 04:29:35;;;;;;;32.33;25.30;;;;;;;7.19;100.00;95334.84;5050906;28;20471;-75
2022/04/23 04:32:02;;;;;;;35.67;28.37;;;;;;;7.26;100.00;95337.72;5050530;28;20762;-75
2022/04/23 04:34:32;;;;;;;39.73;32.30;;;;;;;7.08;100.00;95312.75;5050413;28;20441;-75
2022/04/23 04:37:03;;;;;;;39.53;29.10;;;;;;;7.32;100.00;95340.88;5033627;28;20439;-75
2022/04/23 04:39:31;;;;;;;36.20;27.70;;;;;;;7.28;100.00;95338.16;5051632;28;21034;-75
2022/04/23 04:41:57;;;;;;;39.17;28.97;;;;;;;7.03;100.00;95312.94;5033806;28;20459;-74
2022/04/23 04:44:24;;;;;;;41.73;30.40;;;;;;;7.05;100.00;95314.16;5050192;28;20426;-74
2022/04/23 04:46:51;;;;;;;45.50;30.10;;;;;;;6.98;100.00;95295.53;5033865;28;20427;-75
2022/04/23 04:49:17;;;;;;;42.00;29.80;;;;;;;7.29;100.00;95341.53;5041694;28;20564;-75
2022/04/23 04:51:44;;;;;;;39.70;27.77;;;;;;;7.09;100.00;95306.41;5033713;28;20444;-75
2022/04/23 04:54:11;;;;;;;39.97;29.07;;;;;;;7.28;100.00;95326.88;5033831;28;20435;-75
2022/04/23 04:56:38;;;;;;;40.80;29.03;;;;;;;7.13;100.00;95307.25;5033257;28;20497;-75
2022/04/23 04:59:05;;;;;;;44.63;33.23;;;;;;;7.32;100.00;95328.50;5033422;28;20525;-75
2022/04/23 05:01:31;;;;;;;41.30;32.10;;;;;;;7.28;100.00;95334.75;5033559;28;20519;-75
2022/04/23 05:03:58;;;;;;;38.60;29.50;;;;;;;7.30;100.00;95327.28;5033716;28;20481;-75
2022/04/23 05:06:25;;;;;;;40.07;28.77;;;;;;;7.42;100.00;95345.69;5033759;28;20444;-75
2022/04/23 05:08:52;;;;;;;43.17;30.17;;;;;;;7.45;100.00;95341.63;5036117;28;20422;-75
2022/04/23 05:11:18;;;;;;;40.93;30.87;;;;;;;7.17;100.00;95300.25;5037878;28;20446;-75
2022/04/23 05:13:45;;;;;;;40.03;30.07;;;;;;;7.46;100.00;95341.31;5054734;28;20533;-75
2022/04/23 05:16:12;;;;;;;39.73;30.40;;;;;;;7.46;100.00;95351.06;5037062;28;20498;-74
2022/04/23 05:18:39;;;;;;;40.13;31.87;;;;;;;7.41;100.00;95347.56;5037043;28;20443;-74
2022/04/23 05:21:05;;;;;;;40.27;29.00;;;;;;;7.47;100.00;95350.72;5039632;28;20455;-74
2022/04/23 05:23:32;;;;;;;42.37;31.17;;;;;;;7.53;100.00;95357.31;5047296;28;20506;-75
2022/04/23 05:25:59;;;;;;;38.53;30.33;;;;;;;7.52;100.00;95350.53;5056290;28;20502;-74
2022/04/23 05:28:25;;;;;;;43.37;30.67;;;;;;;7.46;100.00;95336.03;5037634;28;20477;-75
2022/04/23 05:30:52;;;;;;;38.67;30.73;;;;;;;7.36;100.00;95328.63;5051024;28;20466;-74
2022/04/23 05:33:19;;;;;;;37.50;30.37;;;;;;;7.34;100.00;95331.56;5055813;28;20430;-75
2022/04/23 05:35:45;;;;;;;46.53;31.37;;;;;;;7.30;100.00;95317.53;5037344;28;20459;-75
2022/04/23 05:38:12;;;;;;;40.90;31.70;;;;;;;7.61;100.00;95360.91;5036960;28;20451;-75
2022/04/23 05:40:39;;;;;;;44.30;30.70;;;;;;;7.38;100.00;95324.56;5036958;28;20502;-74
2022/04/23 05:43:06;;;;;;;42.40;32.90;;;;;;;7.64;100.00;95361.03;5036785;28;20538;-75
2022/04/23 05:45:32;;;;;;;41.17;31.23;;;;;;;7.48;100.00;95346.22;5037296;28;20446;-75
2022/04/23 05:47:59;;;;;;;43.40;33.53;;;;;;;7.67;100.00;95370.13;5036820;28;20464;-74
2022/04/23 05:50:26;;;;;;;42.23;31.20;;;;;;;7.50;100.00;95328.28;5054696;28;20501;-75
2022/04/23 05:52:52;;;;;;;38.47;28.50;;;;;;;7.39;100.00;95331.34;5054773;28;20470;-75
2022/04/23 05:55:19;;;;;;;40.37;31.73;;;;;;;7.64;100.00;95357.63;5037244;28;20818;-75
2022/04/23 05:57:47;;;;;;;41.93;33.70;;;;;;;7.59;100.00;95347.31;5054669;28;20851;-75
2022/04/23 06:00:14;;;;;;;41.83;30.60;;;;;;;7.68;100.00;95367.16;5053467;28;20501;-75
2022/04/23 06:02:41;;;;;;;45.13;35.07;;;;;;;7.63;100.00;95361.38;5037426;28;20534;-75
2022/04/23 06:05:08;;;;;;;40.33;32.87;;;;;;;7.60;100.00;95368.03;5037442;28;20480;-73
2022/04/23 06:07:34;;;;;;;43.37;32.37;;;;;;;7.66;100.00;95381.75;5040789;28;20875;-73
2022/04/23 06:10:01;;;;;;;39.67;30.47;;;;;;;7.37;100.00;95346.69;5037356;28;20455;-74
2022/04/23 06:12:28;;;;;;;37.27;29.87;;;;;;;7.62;100.00;95379.00;5036844;28;20489;-74
2022/04/23 06:14:55;;;;;;;40.43;30.60;;;;;;;7.65;100.00;95386.25;5036834;28;20521;-75
2022/04/23 06:17:27;;;;;;;40.63;30.33;;;;;;;7.39;100.00;95335.84;5036806;28;20458;-75
2022/04/23 06:19:55;;;;;;;36.70;27.60;;;;;;;7.62;100.00;95376.38;5054183;28;20466;-75
2022/04/23 06:22:22;;;;;;;42.07;30.47;;;;;;;7.71;100.00;95381.50;5036281;28;20530;-74
2022/04/23 06:24:50;;;;;;;37.50;28.67;;;;;;;7.52;100.00;95349.75;5036354;28;20442;-75
2022/04/23 06:27:17;;;;;;;38.00;29.87;;;;;;;7.49;100.00;95353.06;5036322;28;20838;-75
2022/04/23 06:29:43;;;;;;;37.73;28.80;;;;;;;7.59;100.00;95371.75;5035917;28;20554;-74
2022/04/23 06:32:10;;;;;;;40.83;29.47;;;;;;;7.45;100.00;95360.81;5035886;28;20443;-75
2022/04/23 06:34:38;;;;;;;39.20;30.83;;;;;;;7.51;100.00;95372.66;5042752;28;20461;-74
2022/04/23 06:37:06;;;;;;;38.97;30.43;;;;;;;7.71;100.00;95394.66;5036041;28;20467;-74
2022/04/23 06:39:33;;;;;;;41.67;30.30;;;;;;;7.64;100.00;95389.19;5043599;28;20513;-75
2022/04/23 06:42:00;;;;;;;43.17;30.90;;;;;;;7.72;100.00;95401.47;5052549;28;20558;-75
2022/04/23 06:44:27;;;;;;;34.07;26.90;;;;;;;7.64;100.00;95389.19;5035890;28;20441;-75
2022/04/23 06:46:54;;;;;;;33.70;27.67;;;;;;;7.66;100.00;95408.81;5049746;28;20482;-75
2022/04/23 06:49:22;;;;;;;35.60;28.70;;;;;;;7.58;100.00;95406.28;5053908;28;20546;-74
2022/04/23 06:51:49;;;;;;;37.67;28.47;;;;;;;7.61;100.00;95403.00;5035800;28;20930;-74
2022/04/23 06:54:16;;;;;;;39.73;26.70;;;;;;;7.39;100.00;95383.94;5035913;28;20454;-75
2022/04/23 06:56:42;;;;;;;32.63;27.20;;;;;;;7.35;100.00;95383.06;5039050;28;20550;-74
2022/04/23 06:59:09;;;;;;;42.40;28.10;;;;;;;7.65;100.00;95406.53;5036450;28;20744;-74
2022/04/23 07:01:36;;;;;;;35.57;27.57;;;;;;;7.74;100.00;95412.41;5053727;28;20490;-74
2022/04/23 07:04:03;;;;;;;34.37;25.97;;;;;;;7.80;100.00;95412.97;5062864;28;20829;-74
2022/04/23 07:06:30;;;;;;;35.80;26.37;;;;;;;7.48;100.00;95383.84;5023155;28;20969;-75
2022/04/23 07:08:56;;;;;;;32.33;24.80;;;;;;;7.72;100.00;95410.13;5052614;28;20622;-75
2022/04/23 07:11:23;;;;;;;37.70;26.67;;;;;;;7.40;100.00;95377.59;5035726;28;20444;-75
2022/04/23 07:13:49;;;;;;;32.43;25.30;;;;;;;7.66;100.00;95395.66;5042138;28;20526;-75
2022/04/23 07:16:17;;;;;;;38.00;24.83;;;;;;;7.56;100.00;95397.97;5035100;28;20994;-75
2022/04/23 07:18:43;;;;;;;30.83;24.57;;;;;;;7.59;100.00;95392.81;5053044;28;20476;-75
2022/04/23 07:21:10;;;;;;;31.40;23.80;;;;;;;7.76;100.00;95398.97;5035477;28;20463;-75
2022/04/23 07:26:22;;;;;;;29.80;23.67;;;;;;;7.81;100.00;95411.88;5052207;28;20528;-74
2022/04/23 07:28:49;;;;;;;37.17;24.97;;;;;;;7.71;100.00;95392.03;5035313;28;20435;-75
2022/04/23 07:31:16;;;;;;;34.57;25.10;;;;;;;7.86;100.00;95415.03;5035334;28;20457;-75
2022/04/23 07:39:13;;;;;;;25.27;20.10;;;;;;;7.70;100.00;95393.91;5045897;28;20558;-74
2022/04/23 07:41:40;;;;;;;27.80;23.70;;;;;;;7.35;100.00;95342.88;5056880;28;20463;-74
2022/04/23 07:44:06;;;;;;;33.40;23.57;;;;;;;7.89;100.00;95419.66;5039275;28;20442;-75
2022/04/23 07:46:33;;;;;;;28.97;22.97;;;;;;;7.86;100.00;95416.91;5043302;28;20463;-75
2022/04/23 07:49:00;;;;;;;30.37;23.03;;;;;;;7.84;100.00;95409.34;5023909;28;20494;-75
2022/04/23 07:51:27;;;;;;;29.63;23.60;;;;;;;7.62;100.00;95378.25;5039148;28;20439;-73
2022/04/23 07:53:59;;;;;;;29.93;24.37;;;;;;;7.84;100.00;95417.22;5037030;28;20489;-73
2022/04/23 07:56:26;;;;;;;29.47;22.37;;;;;;;7.88;100.00;95427.88;5053043;28;20486;-73
2022/04/23 07:58:53;;;;;;;29.37;21.37;;;;;;;7.95;100.00;95420.97;5052846;28;20498;-73
2022/04/23 08:01:20;;;;;;;28.23;22.10;;;;;;;7.85;100.00;95415.38;5052652;28;20443;-73
2022/04/23 08:03:47;;;;;;;27.97;23.10;;;;;;;7.79;100.00;95425.38;5053736;28;20438;-73
2022/04/23 08:06:15;;;;;;;30.67;23.93;;;;;;;7.61;100.00;95393.28;5022730;28;20967;-74
2022/04/23 08:08:42;;;;;;;26.73;21.80;;;;;;;7.50;100.00;95386.91;5031105;28;20566;-73
2022/04/23 08:11:09;;;;;;;28.37;21.63;;;;;;;7.32;100.00;95359.28;5035055;28;20439;-73
2022/04/23 08:13:36;;;;;;;27.37;22.00;;;;;;;7.75;100.00;95415.84;5052543;28;20423;-73
2022/04/23 08:16:04;;;;;;;30.37;22.03;;;;;;;7.70;100.00;95395.75;5053130;28;20507;-74
2022/04/23 08:18:31;;;;;;;29.80;22.07;;;;;;;7.77;100.00;95424.94;5036029;28;20436;-74
2022/04/23 08:20:58;;;;;;;29.43;21.43;;;;;;;7.50;100.00;95389.53;5034458;28;20485;-74
2022/04/23 08:23:25;;;;;;;33.07;23.00;;;;;;;7.58;100.00;95395.78;5034594;28;20939;-73
2022/04/23 08:25:55;;;;;;;29.43;21.87;;;;;;;7.60;100.00;95401.47;5035094;28;20526;-74
2022/04/23 08:31:08;;;;;;;33.10;22.10;;;;;;;7.91;100.00;95422.72;5057203;28;20553;-73
2022/04/23 08:36:21;;;;;;;27.27;20.30;;;;;;;7.81;100.00;95406.63;5035189;28;21018;-74
2022/04/23 08:38:48;;;;;;;28.73;21.13;;;;;;;7.79;100.00;95393.03;5053097;28;20460;-74
2022/04/23 08:41:15;;;;;;;25.07;20.00;;;;;;;8.15;100.00;95426.44;5052202;28;20465;-74
2022/04/23 08:43:42;;;;;;;25.63;18.63;;;;;;;8.26;100.00;95417.72;5036082;28;20443;-74
2022/04/23 08:46:09;;;;;;;28.97;21.23;;;;;;;8.00;100.00;95391.78;5059056;28;20424;-74
2022/04/23 08:48:41;;;;;;;30.40;20.10;;;;;;;7.91;100.00;95400.91;5041533;28;20965;-74
2022/04/23 08:51:12;;;;;;;25.20;18.70;;;;;;;7.97;100.00;95400.34;5052475;28;20461;-73
2022/04/23 08:53:41;;;;;;;28.43;19.40;;;;;;;8.25;100.00;95428.56;5034737;28;20502;-74
2022/04/23 08:56:08;;;;;;;27.17;21.50;;;;;;;7.93;100.00;95393.44;5035451;28;20501;-74
2022/04/23 08:58:39;;;;;;;25.23;19.70;;;;;;;8.15;100.00;95419.28;5053176;28;20830;-74
2022/04/23 09:01:06;;;;;;;28.57;21.20;;;;;;;8.18;100.00;95396.78;5034676;28;20474;-74
2022/04/23 09:03:33;;;;;;;27.10;20.90;;;;;;;7.83;100.00;95370.22;5035260;28;20455;-74
2022/04/23 09:06:00;;;;;;;31.93;22.87;;;;;;;8.21;100.00;95411.91;5037629;28;20518;-74
2022/04/23 09:08:29;;;;;;;23.37;20.23;;;;;;;8.27;100.00;95413.97;5036640;28;20431;-74
2022/04/23 09:10:57;;;;;;;26.50;20.13;;;;;;;8.31;100.00;95398.28;5034589;28;20447;-74
2022/04/23 09:13:25;;;;;;;25.10;18.60;;;;;;;8.24;100.00;95383.06;5034554;28;20444;-74
2022/04/23 09:24:49;;;;;;;25.13;20.77;;;;;;;8.77;100.00;95412.75;5052047;28;20427;-74
2022/04/23 09:27:16;;;;;;;21.87;19.27;;;;;;;9.08;100.00;95419.97;5029069;28;20469;-74
2022/04/23 09:30:00;;;;;;;21.10;18.07;;;;;;;8.92;100.00;95384.88;5055731;28;21036;-74
2022/04/23 09:32:27;;;;;;;26.30;20.00;;;;;;;8.92;100.00;95408.59;5034025;28;20476;-74
2022/04/23 09:35:08;;;;;;;21.33;18.77;;;;;;;8.56;100.00;95362.13;5050395;28;20434;-74
2022/04/23 09:40:36;;;;;;;22.57;18.53;;;;;;;8.82;100.00;95357.16;5053741;28;21038;-74
2022/04/23 09:43:08;;;;;;;22.17;19.87;;;;;;;9.07;100.00;95384.13;5053702;28;20462;-74
2022/04/23 09:45:41;;;;;;;22.17;19.17;;;;;;;9.04;100.00;95400.63;5054378;28;20881;-74
2022/04/23 09:48:11;;;;;;;22.17;19.90;;;;;;;9.27;100.00;95402.69;5036363;28;20532;-74
2022/04/23 09:50:39;;;;;;;20.83;18.60;;;;;;;9.39;100.00;95376.22;5054053;28;20448;-74
2022/04/23 09:53:13;;;;;;;21.80;17.77;;;;;;;9.04;100.00;95362.94;5037144;28;20449;-74
2022/04/23 09:55:40;;;;;;;21.77;19.30;;;;;;;9.28;100.00;95383.88;5056228;28;20915;-74
2022/04/23 09:58:09;;;;;;;22.30;19.00;;;;;;;9.30;100.00;95355.28;5038304;28;20470;-74
2022/04/23 10:00:47;;;;;;;21.63;19.33;;;;;;;9.51;100.00;95401.75;5040073;28;20467;-74
2022/04/23 10:03:14;;;;;;;21.33;18.33;;;;;;;9.48;100.00;95398.72;5027457;28;20487;-74
2022/04/23 10:05:45;;;;;;;21.63;18.30;;;;;;;9.52;100.00;95398.00;5049558;28;20441;-74
2022/04/23 10:08:14;;;;;;;20.97;18.77;;;;;;;9.61;100.00;95404.63;5049098;28;20464;-74
2022/04/23 10:10:55;;;;;;;18.23;15.87;;;;;;;9.71;100.00;95401.47;5052477;28;20489;-74
2022/04/23 10:13:29;;;;;;;17.90;16.00;;;;;;;9.84;100.00;95409.28;5055432;28;20494;-74
2022/04/23 10:15:57;;;;;;;20.00;17.90;;;;;;;10.26;100.00;95406.81;5062729;28;20454;-74
2022/04/23 10:18:24;;;;;;;17.97;16.17;;;;;;;10.18;100.00;95402.50;5052079;28;20443;-74
2022/04/23 10:20:55;;;;;;;18.20;15.70;;;;;;;9.69;100.00;95371.25;5067831;28;20475;-74
2022/04/23 10:23:22;;;;;;;18.97;16.57;;;;;;;10.11;100.00;95415.53;5068028;28;20420;-74
2022/04/23 10:25:56;;;;;;;19.80;17.30;;;;;;;9.89;100.00;95417.72;5053065;28;20523;-74
2022/04/23 10:28:23;;;;;;;18.00;16.10;;;;;;;9.66;100.00;95385.16;5052231;28;20443;-73
2022/04/23 10:31:15;;;;;;;19.33;15.70;;;;;;;10.00;100.00;95408.13;5012176;28;20482;-74
2022/04/23 10:33:51;;;;;;;19.93;15.47;;;;;;;9.84;100.00;95411.94;5038001;28;20445;-74
2022/04/23 10:36:22;;;;;;;19.23;17.27;;;;;;;9.98;100.00;95425.44;5056089;28;20482;-74
2022/04/23 10:38:53;;;;;;;18.53;16.70;;;;;;;10.53;100.00;95413.78;5038600;28;20462;-75
2022/04/23 10:41:23;;;;;;;18.93;16.87;;;;;;;10.41;100.00;95415.81;5054188;28;20510;-74
2022/04/23 10:44:04;;;;;;;19.47;16.23;;;;;;;10.33;100.00;95397.19;5038165;28;20797;-74
2022/04/23 10:46:56;;;;;;;17.70;15.90;;;;;;;10.67;100.00;95421.22;5037646;28;20454;-74
2022/04/23 10:49:23;;;;;;;16.43;14.73;;;;;;;10.26;100.00;95420.78;5036992;28;20447;-74
2022/04/23 10:51:59;;;;;;;18.13;16.37;;;;;;;10.17;100.00;95414.94;5041206;28;20428;-74
2022/04/23 10:54:41;;;;;;;20.00;16.23;;;;;;;10.29;100.00;95411.44;5036663;28;20969;-74
2022/04/23 10:57:09;;;;;;;17.73;15.87;;;;;;;10.24;100.00;95401.13;5036947;28;20491;-74
2022/04/23 10:59:50;;;;;;;21.77;16.73;;;;;;;10.09;100.00;95386.84;5036168;28;20487;-74
2022/04/23 11:02:19;;;;;;;17.37;15.30;;;;;;;10.59;100.00;95422.22;5043748;28;20490;-74
2022/04/23 11:13:59;;;;;;;15.83;14.30;;;;;;;10.93;100.00;95402.84;5035952;28;20433;-74
2022/04/23 11:16:30;;;;;;;18.20;14.67;;;;;;;10.98;100.00;95395.75;5035888;28;20450;-73
2022/04/23 11:18:59;;;;;;;15.90;13.13;;;;;;;10.99;100.00;95398.03;5036042;28;20900;-75
2022/04/23 11:21:27;;;;;;;16.37;13.57;;;;;;;11.10;100.00;95372.53;5036405;28;20443;-76
2022/04/23 11:23:56;;;;;;;14.57;12.90;;;;;;;11.16;100.00;95391.53;5036498;28;20468;-76
2022/04/23 11:26:39;;;;;;;15.30;13.70;;;;;;;11.11;100.00;95400.53;5053638;28;20427;-76
2022/04/23 11:29:06;;;;;;;17.03;15.23;;;;;;;11.32;100.00;95383.47;5035904;28;20506;-76
2022/04/23 11:31:32;;;;;;;14.07;12.67;;;;;;;11.46;100.00;95392.41;5043422;28;20830;-75
2022/04/23 11:34:00;;;;;;;19.10;14.63;;;;;;;11.80;100.00;95379.31;5035871;28;20498;-74
2022/04/23 11:36:35;;;;;;;14.37;12.97;;;;;;;11.35;100.00;95324.53;5043356;28;20447;-74
2022/04/23 11:39:09;;;;;;;14.90;13.30;;;;;;;11.23;100.00;95344.78;5024146;28;20966;-74
2022/04/23 11:41:47;;;;;;;14.90;13.40;;;;;;;11.19;100.00;95349.25;5054614;28;20442;-74
2022/04/23 11:44:17;;;;;;;14.23;11.30;;;;;;;11.92;99.94;95370.41;5036374;28;20428;-74
2022/04/23 11:46:48;;;;;;;15.20;12.80;;;;;;;12.01;99.77;95366.34;5051370;28;20850;-74
2022/04/23 11:49:31;;;;;;;13.37;12.00;;;;;;;12.13;97.76;95357.44;5054317;28;20543;-74
2022/04/23 11:52:02;;;;;;;14.03;12.67;;;;;;;12.35;96.17;95364.53;5040634;28;20421;-74
2022/04/23 11:54:40;;;;;;;12.90;11.70;;;;;;;12.20;95.35;95362.06;5041119;28;20433;-74
2022/04/23 11:57:09;;;;;;;11.93;10.83;;;;;;;12.79;94.17;95358.56;5035697;28;20528;-74